Doddridge, Arkansas
Current Conditions -  °F | °C
As of 10:53 AM on Saturday 27 Dec 2014 (Local Time) from KTXK Reporting Station
Light Rain Light Rain  
Wind Chill: 55°   Ceiling: 400
Heat Index: 55°   Visibility: 5mi
Dew Point: 55°   Wind: 16mph
Humidity: 100%   Direction: 310°NW
Pressure: 30.12"   Gusts: 23mph
Location:  33.09°N, 93.91°W
Report Text: KTXK 271653Z 31014G20KT 5SM -RA BR BKN004 OVC008 13/13 A3012 RMK AO2 SLP196 P0030 T01280128
Loading
Personal Weather Stations






























Interactive Weather Map New forecast layout! Learn more

10-Day Weather Forecast

Advertisements
Track Severe Weather on mobile